createdAt,value
2023-01-06T00:01:55.380Z,9.27
2023-01-06T00:04:23.798Z,7.67
2023-01-06T00:06:51.926Z,8.07
2023-01-06T00:09:20.092Z,7.23
2023-01-06T00:11:48.254Z,6.77
2023-01-06T00:14:19.173Z,6.80
2023-01-06T00:16:51.037Z,12.17
2023-01-06T00:19:19.274Z,7.40
2023-01-06T00:21:49.689Z,11.63
2023-01-06T00:24:17.819Z,8.77
2023-01-06T00:26:45.958Z,8.17
2023-01-06T00:29:15.325Z,8.17
2023-01-06T00:31:46.550Z,8.33
2023-01-06T00:34:18.368Z,6.50
2023-01-06T00:36:46.609Z,7.87
2023-01-06T00:39:15.236Z,4.43
2023-01-06T00:42:00.855Z,9.37
2023-01-06T00:44:29.043Z,6.70
2023-01-06T00:46:59.918Z,5.27
2023-01-06T00:49:32.893Z,4.77
2023-01-06T00:52:03.212Z,6.63
2023-01-06T00:54:31.391Z,6.23
2023-01-06T00:56:59.582Z,5.73
2023-01-06T00:59:28.139Z,7.43
2023-01-06T01:01:58.086Z,4.97
2023-01-06T01:04:29.215Z,6.53
2023-01-06T01:07:00.447Z,6.37
2023-01-06T01:09:31.527Z,6.47
2023-01-06T01:12:17.183Z,5.77
2023-01-06T01:14:47.677Z,4.03
2023-01-06T01:17:17.846Z,5.27
2023-01-06T01:19:46.255Z,5.47
2023-01-06T01:22:18.421Z,6.63
2023-01-06T01:24:49.051Z,7.00
2023-01-06T01:27:17.406Z,5.67
2023-01-06T01:29:46.879Z,7.17
2023-01-06T01:32:15.218Z,12.97
2023-01-06T01:34:43.312Z,7.50
2023-01-06T01:37:11.464Z,4.20
2023-01-06T01:39:43.907Z,4.87
2023-01-06T01:42:18.713Z,7.80
2023-01-06T01:44:59.293Z,5.63
2023-01-06T01:47:51.959Z,6.63
2023-01-06T01:50:29.241Z,6.37
2023-01-06T01:53:02.277Z,6.20
2023-01-06T01:55:33.264Z,4.57
2023-01-06T01:58:05.282Z,7.40
2023-01-06T02:00:34.607Z,7.77
2023-01-06T02:03:04.227Z,6.70
2023-01-06T02:05:34.880Z,6.47
2023-01-06T02:08:11.899Z,9.77
2023-01-06T02:10:41.391Z,4.23
2023-01-06T02:13:11.648Z,7.30
2023-01-06T02:15:40.510Z,5.10
2023-01-06T02:18:42.963Z,9.00
2023-01-06T02:21:22.090Z,5.83
2023-01-06T02:24:33.284Z,8.80
2023-01-06T02:27:42.590Z,6.87
2023-01-06T02:30:49.073Z,4.27
2023-01-06T02:33:27.579Z,6.07
2023-01-06T02:36:19.175Z,6.20
2023-01-06T02:39:01.989Z,5.77
2023-01-06T02:41:34.493Z,4.33
2023-01-06T02:44:11.386Z,3.27
2023-01-06T02:46:55.276Z,6.23
2023-01-06T02:49:32.195Z,5.40
2023-01-06T02:52:10.836Z,6.70
2023-01-06T02:54:52.226Z,7.07
2023-01-06T02:57:28.701Z,6.60
2023-01-06T03:00:07.202Z,5.90
2023-01-06T03:02:38.601Z,7.23
2023-01-06T03:05:11.379Z,5.20
2023-01-06T03:07:41.762Z,5.90
2023-01-06T03:10:12.389Z,7.60
2023-01-06T03:12:47.285Z,5.87
2023-01-06T03:15:16.597Z,5.13
2023-01-06T03:17:45.314Z,5.70
2023-01-06T03:20:15.721Z,6.50
2023-01-06T03:22:45.239Z,5.27
2023-01-06T03:25:13.867Z,4.20
2023-01-06T03:27:44.027Z,3.47
2023-01-06T03:30:15.235Z,3.93
2023-01-06T03:32:51.864Z,7.77
2023-01-06T03:35:35.330Z,3.30
2023-01-06T03:38:15.569Z,5.33
2023-01-06T03:40:51.832Z,3.73
2023-01-06T03:43:25.604Z,10.70
2023-01-06T03:46:07.998Z,4.33
2023-01-06T03:48:51.532Z,5.07
2023-01-06T03:51:32.159Z,4.83
2023-01-06T03:54:04.210Z,4.07
2023-01-06T03:56:37.154Z,4.57
2023-01-06T03:59:10.587Z,2.40
2023-01-06T04:01:44.221Z,3.50
2023-01-06T04:04:13.166Z,2.57
2023-01-06T04:06:45.287Z,4.13
2023-01-06T04:09:16.315Z,3.23
2023-01-06T04:12:02.742Z,2.93
2023-01-06T04:14:32.894Z,4.90
2023-01-06T04:17:04.196Z,5.80
2023-01-06T04:19:32.282Z,1.50
2023-01-06T04:22:04.852Z,3.07
2023-01-06T04:24:34.160Z,9.03
2023-01-06T04:27:02.289Z,4.47
2023-01-06T04:29:30.384Z,3.30
2023-01-06T04:31:59.454Z,3.00
2023-01-06T04:34:27.593Z,2.03
2023-01-06T04:36:56.722Z,1.67
2023-01-06T04:39:26.197Z,4.27
2023-01-06T04:41:54.284Z,2.63
2023-01-06T04:44:22.373Z,2.90
2023-01-06T04:46:50.472Z,2.77
2023-01-06T04:49:18.631Z,5.20
2023-01-06T04:51:46.763Z,3.30
2023-01-06T04:54:14.912Z,2.90
2023-01-06T04:56:44.395Z,3.23
2023-01-06T04:59:12.553Z,3.97
2023-01-06T05:01:40.734Z,6.33
2023-01-06T05:04:09.034Z,2.67
2023-01-06T05:06:39.394Z,2.40
2023-01-06T05:09:08.037Z,3.97
2023-01-06T05:11:36.214Z,2.37
2023-01-06T05:14:05.685Z,1.53
2023-01-06T05:16:38.163Z,2.33
2023-01-06T05:19:06.408Z,2.63
2023-01-06T05:21:34.491Z,1.13
2023-01-06T05:24:02.576Z,3.93
2023-01-06T05:26:30.668Z,4.47
2023-01-06T05:29:01.064Z,3.17
2023-01-06T05:31:30.595Z,4.97
2023-01-06T05:33:58.668Z,5.70
2023-01-06T05:36:26.791Z,2.70
2023-01-06T05:38:55.635Z,3.17
2023-01-06T05:41:23.867Z,4.70
2023-01-06T05:43:51.950Z,4.50
2023-01-06T05:46:20.067Z,4.27
2023-01-06T05:48:49.550Z,4.40
2023-01-06T05:51:18.168Z,2.53
2023-01-06T05:53:48.237Z,2.23
2023-01-06T05:56:18.909Z,2.23
2023-01-06T05:58:48.500Z,3.10
2023-01-06T06:01:21.198Z,2.87
2023-01-06T06:03:51.790Z,4.30
2023-01-06T06:06:21.015Z,3.70
2023-01-06T06:08:49.250Z,5.00
2023-01-06T06:11:19.193Z,3.77
2023-01-06T06:13:51.503Z,3.97
2023-01-06T06:16:21.600Z,3.97
2023-01-06T06:18:52.716Z,5.73
2023-01-06T06:21:24.788Z,4.60
2023-01-06T06:23:54.718Z,3.43
2023-01-06T06:26:23.423Z,4.33
2023-01-06T06:28:51.592Z,6.27
2023-01-06T06:31:22.645Z,2.33
2023-01-06T06:33:53.289Z,2.23
2023-01-06T06:36:21.537Z,3.17
2023-01-06T06:38:53.196Z,2.73
2023-01-06T06:41:21.760Z,8.77
2023-01-06T06:43:50.329Z,4.60
2023-01-06T06:46:18.812Z,3.70
2023-01-06T06:48:50.854Z,7.57
2023-01-06T06:51:21.932Z,3.57
2023-01-06T06:53:50.973Z,2.60
2023-01-06T06:56:20.971Z,4.23
2023-01-06T06:58:49.839Z,2.03
2023-01-06T07:01:19.857Z,4.33
2023-01-06T07:03:50.608Z,2.03
2023-01-06T07:06:23.163Z,5.40
2023-01-06T07:08:52.126Z,4.07
2023-01-06T07:11:20.587Z,4.87
2023-01-06T07:13:50.849Z,3.07
2023-01-06T07:16:19.845Z,4.57
2023-01-06T07:18:48.532Z,1.93
2023-01-06T07:21:20.541Z,3.20
2023-01-06T07:23:50.941Z,2.60
2023-01-06T07:26:19.131Z,3.80
2023-01-06T07:28:47.264Z,4.30
2023-01-06T07:31:15.462Z,3.47
2023-01-06T07:33:46.071Z,5.73
2023-01-06T07:36:16.484Z,1.20
2023-01-06T07:38:45.972Z,6.03
2023-01-06T07:41:16.378Z,3.10
2023-01-06T07:43:44.485Z,1.87
2023-01-06T07:46:12.676Z,2.37
2023-01-06T07:48:40.864Z,4.17
2023-01-06T07:51:10.984Z,2.20
2023-01-06T07:53:39.145Z,5.60
2023-01-06T07:56:08.763Z,2.10
2023-01-06T07:58:36.854Z,2.33
2023-01-06T08:01:07.070Z,4.53
2023-01-06T08:03:35.220Z,5.20
2023-01-06T08:06:07.918Z,2.23
2023-01-06T08:08:37.656Z,3.17
2023-01-06T08:11:11.328Z,2.57
2023-01-06T08:13:41.737Z,3.23
2023-01-06T08:16:11.388Z,4.57
2023-01-06T08:18:42.173Z,2.43
2023-01-06T08:21:13.299Z,2.70
2023-01-06T08:23:41.769Z,2.67
2023-01-06T08:26:13.634Z,4.30
2023-01-06T08:28:42.455Z,3.03
2023-01-06T08:31:14.126Z,2.20
2023-01-06T08:33:42.553Z,2.60
2023-01-06T08:36:15.834Z,2.37
2023-01-06T08:38:44.724Z,2.47
2023-01-06T08:41:14.301Z,4.57
2023-01-06T08:43:45.592Z,4.17
2023-01-06T08:46:17.170Z,2.87
2023-01-06T08:48:48.340Z,2.07
2023-01-06T08:51:18.702Z,4.20
2023-01-06T08:53:47.703Z,3.50
2023-01-06T08:56:19.810Z,1.60
2023-01-06T08:58:53.247Z,6.27
2023-01-06T09:01:25.989Z,2.37
2023-01-06T09:03:54.376Z,4.13
2023-01-06T09:06:23.040Z,2.50
2023-01-06T09:08:53.633Z,3.10
2023-01-06T09:11:25.654Z,2.37
2023-01-06T09:13:56.459Z,2.37
2023-01-06T09:16:24.648Z,5.33
2023-01-06T09:18:53.373Z,2.10
2023-01-06T09:21:23.177Z,1.97
2023-01-06T09:23:51.868Z,5.17
2023-01-06T09:26:21.639Z,2.13
2023-01-06T09:28:53.642Z,3.87
2023-01-06T09:31:23.903Z,2.07
2023-01-06T09:33:54.805Z,2.57
2023-01-06T09:36:23.262Z,2.43
2023-01-06T09:38:51.367Z,2.37
2023-01-06T09:42:01.778Z,1.93
2023-01-06T09:44:37.271Z,4.00
2023-01-06T09:47:05.535Z,1.63
2023-01-06T09:49:43.541Z,1.73
2023-01-06T09:52:18.017Z,1.50
2023-01-06T09:54:55.043Z,3.20
2023-01-06T09:57:29.954Z,1.47
2023-01-06T10:00:05.351Z,3.07
2023-01-06T10:02:37.893Z,3.00
2023-01-06T10:05:23.789Z,3.60
2023-01-06T10:08:01.526Z,1.33
2023-01-06T10:10:37.191Z,2.93
2023-01-06T10:13:21.808Z,1.57
2023-01-06T10:15:59.016Z,1.70
2023-01-06T10:18:35.416Z,1.60
2023-01-06T10:21:15.118Z,2.10
2023-01-06T10:24:01.014Z,2.30
2023-01-06T10:26:33.018Z,1.90
2023-01-06T10:29:05.414Z,3.50
2023-01-06T10:31:38.251Z,4.43
2023-01-06T10:34:17.390Z,4.40
2023-01-06T10:36:49.483Z,2.97
2023-01-06T10:39:21.635Z,1.20
2023-01-06T10:42:20.366Z,2.87
2023-01-06T10:44:50.815Z,3.80
2023-01-06T10:47:27.774Z,2.90
2023-01-06T10:49:58.816Z,3.47
2023-01-06T10:52:28.537Z,1.43
2023-01-06T10:55:04.207Z,3.07
2023-01-06T10:57:37.590Z,5.27
2023-01-06T11:00:17.243Z,3.43
2023-01-06T11:02:49.205Z,2.77
2023-01-06T11:05:22.810Z,2.60
2023-01-06T11:07:59.313Z,2.80
2023-01-06T11:10:35.996Z,3.03
2023-01-06T11:13:06.853Z,1.90
2023-01-06T11:15:40.800Z,1.63
2023-01-06T11:18:22.385Z,2.93
2023-01-06T11:21:10.372Z,2.83
2023-01-06T11:23:41.211Z,4.47
2023-01-06T11:26:20.596Z,12.13
2023-01-06T11:28:50.433Z,3.43
2023-01-06T11:31:21.878Z,4.23
2023-01-06T11:33:55.138Z,2.73
2023-01-06T11:36:27.957Z,2.70
2023-01-06T11:39:01.344Z,2.93
2023-01-06T11:41:33.691Z,2.53
2023-01-06T11:44:10.005Z,3.20
2023-01-06T11:46:40.085Z,2.90
2023-01-06T11:49:17.047Z,2.77
2023-01-06T11:51:51.192Z,3.03
2023-01-06T11:54:27.317Z,2.57
2023-01-06T11:57:22.119Z,2.77
2023-01-06T12:00:20.119Z,4.72
2023-01-06T12:02:55.281Z,1.93
2023-01-06T12:05:35.161Z,1.93
2023-01-06T12:08:06.280Z,2.77
2023-01-06T12:10:38.906Z,3.80
2023-01-06T12:13:07.092Z,5.10
2023-01-06T12:15:37.251Z,2.37
2023-01-06T12:18:13.402Z,1.90
2023-01-06T12:20:47.914Z,1.90
2023-01-06T12:23:21.952Z,4.30
2023-01-06T12:25:52.298Z,3.17
2023-01-06T12:28:28.145Z,1.60
2023-01-06T12:31:02.341Z,3.47
2023-01-06T12:33:36.407Z,2.63
2023-01-06T12:36:16.824Z,4.33
2023-01-06T12:38:53.214Z,2.27
2023-01-06T12:41:26.037Z,3.20
2023-01-06T12:44:01.996Z,3.63
2023-01-06T12:46:37.068Z,2.93
2023-01-06T12:49:19.105Z,4.33
2023-01-06T12:51:51.641Z,2.37
2023-01-06T12:54:29.068Z,2.10
2023-01-06T12:57:10.898Z,5.10
2023-01-06T12:59:51.771Z,3.83
2023-01-06T13:02:36.497Z,3.50
2023-01-06T13:05:25.048Z,1.73
2023-01-06T13:08:06.630Z,4.60
2023-01-06T13:10:42.799Z,3.90
2023-01-06T13:13:31.259Z,8.57
2023-01-06T13:16:01.943Z,2.83
2023-01-06T13:18:35.033Z,1.67
2023-01-06T13:21:07.924Z,2.73
2023-01-06T13:23:50.563Z,2.17
2023-01-06T13:26:55.780Z,1.40
2023-01-06T13:29:38.988Z,1.33
2023-01-06T13:32:27.877Z,2.37
2023-01-06T13:35:15.120Z,2.40
2023-01-06T13:37:51.424Z,2.57
2023-01-06T13:40:27.033Z,2.23
2023-01-06T13:42:59.002Z,2.37
2023-01-06T13:45:30.402Z,3.57
2023-01-06T13:48:00.829Z,2.73
2023-01-06T13:50:31.770Z,3.27
2023-01-06T13:53:04.076Z,2.53
2023-01-06T13:55:36.479Z,3.13
2023-01-06T13:58:37.639Z,1.70
2023-01-06T14:01:09.910Z,3.43
2023-01-06T14:03:42.198Z,1.17
2023-01-06T14:06:12.803Z,1.73
2023-01-06T14:08:51.142Z,3.17
2023-01-06T14:11:39.278Z,1.23
2023-01-06T14:14:24.970Z,3.27
2023-01-06T14:16:54.598Z,1.93
2023-01-06T14:19:29.974Z,1.23
2023-01-06T14:22:15.880Z,2.53
2023-01-06T14:24:49.787Z,0.90
2023-01-06T14:27:57.700Z,3.30
2023-01-06T14:30:30.653Z,1.03
2023-01-06T14:33:21.479Z,1.23
2023-01-06T14:36:00.149Z,1.40
2023-01-06T14:38:33.017Z,2.97
2023-01-06T14:41:04.844Z,0.70
2023-01-06T14:43:39.377Z,3.77
2023-01-06T14:46:15.982Z,3.87
2023-01-06T14:48:50.243Z,1.87
2023-01-06T14:51:21.031Z,2.37
2023-01-06T14:54:03.995Z,1.83
2023-01-06T14:56:33.480Z,2.03
2023-01-06T14:59:12.700Z,2.60
2023-01-06T15:01:55.345Z,1.93
2023-01-06T15:04:30.187Z,3.07
2023-01-06T15:07:00.761Z,2.60
2023-01-06T15:09:29.615Z,2.30
2023-01-06T15:11:57.881Z,3.13
2023-01-06T15:14:31.936Z,3.50
2023-01-06T15:17:06.545Z,1.53
2023-01-06T15:19:37.099Z,2.17
2023-01-06T15:22:09.188Z,4.67
2023-01-06T15:24:42.513Z,5.63
2023-01-06T15:27:15.373Z,3.83
2023-01-06T15:29:52.968Z,3.53
2023-01-06T15:32:25.589Z,4.47
2023-01-06T15:34:56.368Z,8.40
2023-01-06T15:37:35.024Z,6.23
2023-01-06T15:40:04.983Z,3.87
2023-01-06T15:42:36.058Z,3.30
2023-01-06T15:45:07.597Z,3.80
2023-01-06T15:47:40.677Z,5.83
2023-01-06T15:50:17.178Z,6.03
2023-01-06T15:52:48.197Z,4.10
2023-01-06T15:55:24.246Z,4.90
2023-01-06T15:57:56.922Z,2.40
2023-01-06T16:00:28.164Z,1.97
2023-01-06T16:02:59.275Z,4.47
2023-01-06T16:05:40.315Z,5.87
2023-01-06T16:08:17.607Z,5.97
2023-01-06T16:10:46.687Z,3.10
2023-01-06T16:13:26.626Z,3.73
2023-01-06T16:16:01.319Z,2.50
2023-01-06T16:18:35.613Z,3.93
2023-01-06T16:21:16.305Z,6.27
2023-01-06T16:23:49.761Z,3.97
2023-01-06T16:26:20.450Z,7.97
2023-01-06T16:28:50.461Z,6.03
2023-01-06T16:31:30.707Z,7.17
2023-01-06T16:34:16.516Z,7.40
2023-01-06T16:36:44.655Z,7.07
2023-01-06T16:39:12.827Z,7.40
2023-01-06T16:41:42.668Z,6.83
2023-01-06T16:44:11.615Z,7.67
2023-01-06T16:46:39.803Z,7.57
2023-01-06T16:49:12.278Z,5.80
2023-01-06T16:51:54.829Z,6.40
2023-01-06T16:54:24.215Z,9.30
2023-01-06T16:56:52.841Z,7.03
2023-01-06T16:59:22.089Z,7.43
2023-01-06T17:01:50.549Z,9.67
2023-01-06T17:04:22.534Z,9.73
2023-01-06T17:06:53.746Z,8.67
2023-01-06T17:09:24.727Z,12.10
2023-01-06T17:11:55.319Z,25.67
2023-01-06T17:14:24.158Z,24.33
2023-01-06T17:16:52.468Z,25.37
2023-01-06T17:19:26.512Z,20.20
2023-01-06T17:22:01.724Z,20.03
2023-01-06T17:24:31.687Z,20.73
2023-01-06T17:27:19.959Z,18.77
2023-01-06T17:29:48.914Z,16.37
2023-01-06T17:32:22.465Z,17.80
2023-01-06T17:34:53.257Z,13.67
2023-01-06T17:37:24.426Z,12.20
2023-01-06T17:39:53.745Z,12.23
2023-01-06T17:42:28.537Z,12.73
2023-01-06T17:45:00.506Z,11.23
2023-01-06T17:47:30.251Z,11.97
2023-01-06T17:50:00.810Z,12.17
2023-01-06T17:52:33.822Z,13.87
2023-01-06T17:55:30.013Z,12.33
2023-01-06T17:58:00.504Z,12.10
2023-01-06T18:00:31.768Z,12.70
2023-01-06T18:03:03.684Z,13.03
2023-01-06T18:06:04.910Z,11.80
2023-01-06T18:08:35.889Z,12.93
2023-01-06T18:11:26.396Z,13.43
2023-01-06T18:13:54.934Z,12.17
2023-01-06T18:16:29.278Z,13.80
2023-01-06T18:19:14.280Z,13.67
2023-01-06T18:21:45.154Z,12.37
2023-01-06T18:24:18.164Z,14.57
2023-01-06T18:26:51.656Z,14.23
2023-01-06T18:29:23.677Z,17.33
2023-01-06T18:31:53.894Z,15.73
2023-01-06T18:34:40.351Z,11.87
2023-01-06T18:37:09.907Z,9.60
2023-01-06T18:39:41.596Z,10.93
2023-01-06T18:42:23.545Z,17.13
2023-01-06T18:44:52.827Z,11.73
2023-01-06T18:47:24.345Z,11.07
2023-01-06T18:49:58.547Z,10.57
2023-01-06T18:52:43.032Z,9.63
2023-01-06T18:55:20.311Z,8.87
2023-01-06T18:57:57.612Z,9.43
2023-01-06T19:00:36.655Z,9.67
2023-01-06T19:03:18.025Z,10.20
2023-01-06T19:05:46.518Z,12.50
2023-01-06T19:08:18.851Z,8.87
2023-01-06T19:10:49.107Z,9.17
2023-01-06T19:13:23.673Z,10.87
2023-01-06T19:15:51.868Z,8.97
2023-01-06T19:18:20.551Z,8.70
2023-01-06T19:20:48.850Z,9.07
2023-01-06T19:23:24.280Z,11.10
2023-01-06T19:26:01.808Z,10.67
2023-01-06T19:28:32.221Z,10.03
2023-01-06T19:31:01.574Z,9.43
2023-01-06T19:33:38.597Z,8.27
2023-01-06T19:36:40.272Z,8.37
2023-01-06T19:39:34.571Z,7.40
2023-01-06T19:42:19.354Z,9.47
2023-01-06T19:44:51.610Z,8.53
2023-01-06T19:47:22.711Z,7.93
2023-01-06T19:49:55.617Z,7.63
2023-01-06T19:52:34.436Z,7.80
2023-01-06T19:55:29.439Z,8.70
2023-01-06T19:58:00.677Z,8.13
2023-01-06T20:00:32.425Z,9.27
2023-01-06T20:03:04.582Z,10.37
2023-01-06T20:05:35.145Z,10.93
2023-01-06T20:08:03.218Z,10.63
2023-01-06T20:10:32.695Z,9.43
2023-01-06T20:13:00.793Z,10.63
2023-01-06T20:15:28.869Z,10.13
2023-01-06T20:17:56.980Z,9.60
2023-01-06T20:20:25.092Z,10.97
2023-01-06T20:22:53.301Z,11.13
2023-01-06T20:25:22.342Z,11.87
2023-01-06T20:27:51.890Z,11.10
2023-01-06T20:30:22.255Z,11.17
2023-01-06T20:32:50.352Z,11.97
2023-01-06T20:35:20.048Z,12.20
2023-01-06T20:37:50.447Z,12.33
2023-01-06T20:40:19.296Z,11.63
2023-01-06T20:42:47.530Z,13.33
2023-01-06T20:45:17.027Z,12.70
2023-01-06T20:47:45.223Z,12.70
2023-01-06T20:50:16.085Z,13.60
2023-01-06T20:52:45.643Z,12.93
2023-01-06T20:55:14.362Z,13.60
2023-01-06T20:57:42.494Z,13.90
2023-01-06T21:00:12.302Z,13.10
2023-01-06T21:02:41.876Z,14.43
2023-01-06T21:05:10.735Z,13.20
2023-01-06T21:07:38.894Z,12.70
2023-01-06T21:10:07.676Z,12.73
2023-01-06T21:12:35.832Z,13.37
2023-01-06T21:15:03.961Z,13.73
2023-01-06T21:17:35.303Z,13.97
2023-01-06T21:20:06.272Z,14.30
2023-01-06T21:22:36.903Z,13.93
2023-01-06T21:25:05.873Z,16.13
2023-01-06T21:27:33.993Z,16.83
2023-01-06T21:30:02.140Z,17.77
2023-01-06T21:32:30.270Z,19.93
2023-01-06T21:34:59.176Z,18.03
2023-01-06T21:37:28.680Z,18.23
2023-01-06T21:39:56.832Z,16.90
2023-01-06T21:42:44.307Z,15.93
2023-01-06T21:45:12.878Z,15.73
2023-01-06T21:47:41.129Z,17.50
2023-01-06T21:50:10.034Z,30.47
2023-01-06T21:52:39.671Z,25.63
2023-01-06T21:55:08.860Z,17.73
2023-01-06T21:57:37.269Z,16.60
2023-01-06T22:00:06.799Z,17.03
2023-01-06T22:02:40.780Z,17.43
2023-01-06T22:05:09.786Z,18.00
2023-01-06T22:07:43.618Z,18.37
2023-01-06T22:10:13.473Z,17.60
2023-01-06T22:12:46.558Z,18.40
2023-01-06T22:15:15.427Z,18.73
2023-01-06T22:17:43.692Z,17.70
2023-01-06T22:20:13.787Z,18.90
2023-01-06T22:22:52.829Z,18.70
2023-01-06T22:25:23.580Z,18.17
2023-01-06T22:27:51.883Z,18.07
2023-01-06T22:30:20.220Z,18.77
2023-01-06T22:32:49.969Z,19.67
2023-01-06T22:35:19.336Z,18.13
2023-01-06T22:37:47.709Z,18.27
2023-01-06T22:40:17.985Z,17.30
2023-01-06T22:42:46.220Z,16.43
2023-01-06T22:45:14.913Z,16.07
2023-01-06T22:47:45.311Z,17.00
2023-01-06T22:50:13.709Z,18.10
2023-01-06T22:52:41.963Z,18.73
2023-01-06T22:55:12.396Z,15.77
2023-01-06T22:57:41.921Z,15.60
2023-01-06T23:00:14.871Z,15.30
2023-01-06T23:02:45.980Z,15.00
2023-01-06T23:05:14.226Z,14.23
2023-01-06T23:07:44.000Z,13.37
2023-01-06T23:10:15.759Z,13.57
2023-01-06T23:12:45.283Z,13.43
2023-01-06T23:15:13.528Z,13.40
2023-01-06T23:17:41.772Z,13.00
2023-01-06T23:20:11.158Z,13.23
2023-01-06T23:22:39.376Z,13.57
2023-01-06T23:25:08.555Z,12.13
2023-01-06T23:27:38.178Z,12.63
2023-01-06T23:30:09.210Z,13.47
2023-01-06T23:32:37.512Z,13.20
2023-01-06T23:35:06.159Z,12.40
2023-01-06T23:37:35.009Z,13.27
2023-01-06T23:40:03.199Z,13.07
2023-01-06T23:42:34.483Z,12.40
2023-01-06T23:45:07.871Z,13.30
2023-01-06T23:47:35.987Z,12.97
2023-01-06T23:50:07.033Z,14.07
2023-01-06T23:52:35.137Z,13.03
2023-01-06T23:55:03.263Z,12.57
2023-01-06T23:57:31.372Z,13.40
